sensor_id;sensor_type;location;lat;lon;timestamp;temperature;humidity
18444;DHT22;9350;53.176;8.194;2023-12-28T00:00:06;7.30;99.90
18444;DHT22;9350;53.176;8.194;2023-12-28T00:02:33;7.30;99.90
18444;DHT22;9350;53.176;8.194;2023-12-28T00:05:00;7.30;99.90
18444;DHT22;9350;53.176;8.194;2023-12-28T00:07:27;7.30;99.90
18444;DHT22;9350;53.176;8.194;2023-12-28T00:09:54;7.40;99.90
18444;DHT22;9350;53.176;8.194;2023-12-28T00:12:22;7.40;99.90
18444;DHT22;9350;53.176;8.194;2023-12-28T00:14:49;7.40;99.90
18444;DHT22;9350;53.176;8.194;2023-12-28T00:17:16;7.30;99.90
18444;DHT22;9350;53.176;8.194;2023-12-28T00:19:43;7.40;99.90
18444;DHT22;9350;53.176;8.194;2023-12-28T00:22:10;7.40;99.90
18444;DHT22;9350;53.176;8.194;2023-12-28T00:24:37;7.40;99.90
18444;DHT22;9350;53.176;8.194;2023-12-28T00:27:04;7.40;99.90
18444;DHT22;9350;53.176;8.194;2023-12-28T00:29:32;7.40;99.90
18444;DHT22;9350;53.176;8.194;2023-12-28T00:32:00;7.40;99.90
18444;DHT22;9350;53.176;8.194;2023-12-28T00:34:26;7.40;99.90
18444;DHT22;9350;53.176;8.194;2023-12-28T00:36:53;7.40;99.90
18444;DHT22;9350;53.176;8.194;2023-12-28T00:39:20;7.40;99.90
18444;DHT22;9350;53.176;8.194;2023-12-28T00:41:47;7.50;99.90
18444;DHT22;9350;53.176;8.194;2023-12-28T00:44:13;7.50;99.90
18444;DHT22;9350;53.176;8.194;2023-12-28T00:46:41;7.50;99.90
18444;DHT22;9350;53.176;8.194;2023-12-28T00:49:08;7.50;99.90
18444;DHT22;9350;53.176;8.194;2023-12-28T00:51:35;7.50;99.90
18444;DHT22;9350;53.176;8.194;2023-12-28T00:54:02;7.50;99.90
18444;DHT22;9350;53.176;8.194;2023-12-28T00:56:29;7.60;99.90
18444;DHT22;9350;53.176;8.194;2023-12-28T00:58:55;7.50;99.90
18444;DHT22;9350;53.176;8.194;2023-12-28T01:01:22;7.60;99.90
18444;DHT22;9350;53.176;8.194;2023-12-28T01:03:50;7.50;99.90
18444;DHT22;9350;53.176;8.194;2023-12-28T01:06:17;7.60;99.90
18444;DHT22;9350;53.176;8.194;2023-12-28T01:08:44;7.60;99.90
18444;DHT22;9350;53.176;8.194;2023-12-28T01:11:11;7.70;99.90
18444;DHT22;9350;53.176;8.194;2023-12-28T01:13:38;7.60;99.90
18444;DHT22;9350;53.176;8.194;2023-12-28T01:16:05;7.60;99.90
18444;DHT22;9350;53.176;8.194;2023-12-28T01:18:32;7.60;99.90
18444;DHT22;9350;53.176;8.194;2023-12-28T01:21:00;7.60;99.90
18444;DHT22;9350;53.176;8.194;2023-12-28T01:23:27;7.70;99.90
18444;DHT22;9350;53.176;8.194;2023-12-28T01:25:55;7.70;99.90
18444;DHT22;9350;53.176;8.194;2023-12-28T01:28:22;7.70;99.90
18444;DHT22;9350;53.176;8.194;2023-12-28T01:30:49;7.70;99.90
18444;DHT22;9350;53.176;8.194;2023-12-28T01:33:16;7.70;99.90
18444;DHT22;9350;53.176;8.194;2023-12-28T01:35:43;7.70;99.90
18444;DHT22;9350;53.176;8.194;2023-12-28T01:38:11;7.70;99.90
18444;DHT22;9350;53.176;8.194;2023-12-28T01:40:38;7.70;99.90
18444;DHT22;9350;53.176;8.194;2023-12-28T01:43:04;7.70;99.90
18444;DHT22;9350;53.176;8.194;2023-12-28T01:45:31;7.60;99.90
18444;DHT22;9350;53.176;8.194;2023-12-28T01:47:59;7.60;99.90
18444;DHT22;9350;53.176;8.194;2023-12-28T01:50:26;7.60;99.90
18444;DHT22;9350;53.176;8.194;2023-12-28T01:52:55;7.60;99.90
18444;DHT22;9350;53.176;8.194;2023-12-28T01:55:24;7.60;99.90
18444;DHT22;9350;53.176;8.194;2023-12-28T01:57:51;7.70;99.90
18444;DHT22;9350;53.176;8.194;2023-12-28T02:00:18;7.70;99.90
18444;DHT22;9350;53.176;8.194;2023-12-28T02:02:47;7.60;99.90
18444;DHT22;9350;53.176;8.194;2023-12-28T02:05:14;7.70;99.90
18444;DHT22;9350;53.176;8.194;2023-12-28T02:07:41;7.70;99.90
18444;DHT22;9350;53.176;8.194;2023-12-28T02:10:08;7.70;99.90
18444;DHT22;9350;53.176;8.194;2023-12-28T02:12:37;7.70;99.90
18444;DHT22;9350;53.176;8.194;2023-12-28T02:15:04;7.70;99.90
18444;DHT22;9350;53.176;8.194;2023-12-28T02:17:34;7.70;99.90
18444;DHT22;9350;53.176;8.194;2023-12-28T02:20:03;7.70;99.90
18444;DHT22;9350;53.176;8.194;2023-12-28T02:22:34;7.60;99.90
18444;DHT22;9350;53.176;8.194;2023-12-28T02:25:09;7.70;99.90
18444;DHT22;9350;53.176;8.194;2023-12-28T02:27:39;7.70;99.90
18444;DHT22;9350;53.176;8.194;2023-12-28T02:30:08;7.70;99.90
18444;DHT22;9350;53.176;8.194;2023-12-28T02:32:40;7.70;99.90
18444;DHT22;9350;53.176;8.194;2023-12-28T02:35:16;7.70;99.90
18444;DHT22;9350;53.176;8.194;2023-12-28T02:37:44;7.80;99.90
18444;DHT22;9350;53.176;8.194;2023-12-28T02:40:16;7.80;99.90
18444;DHT22;9350;53.176;8.194;2023-12-28T02:42:43;7.80;99.90
18444;DHT22;9350;53.176;8.194;2023-12-28T02:45:10;7.80;99.90
18444;DHT22;9350;53.176;8.194;2023-12-28T02:47:37;7.80;99.90
18444;DHT22;9350;53.176;8.194;2023-12-28T02:50:05;7.80;99.90
18444;DHT22;9350;53.176;8.194;2023-12-28T02:52:32;7.80;99.90
18444;DHT22;9350;53.176;8.194;2023-12-28T02:54:58;7.80;99.90
18444;DHT22;9350;53.176;8.194;2023-12-28T02:57:26;7.80;99.90
18444;DHT22;9350;53.176;8.194;2023-12-28T02:59:53;7.90;99.90
18444;DHT22;9350;53.176;8.194;2023-12-28T03:02:22;7.80;99.90
18444;DHT22;9350;53.176;8.194;2023-12-28T03:04:49;7.80;99.90
18444;DHT22;9350;53.176;8.194;2023-12-28T03:07:15;7.80;99.90
18444;DHT22;9350;53.176;8.194;2023-12-28T03:09:42;7.80;99.90
18444;DHT22;9350;53.176;8.194;2023-12-28T03:12:09;7.80;99.90
18444;DHT22;9350;53.176;8.194;2023-12-28T03:14:37;7.80;99.90
18444;DHT22;9350;53.176;8.194;2023-12-28T03:17:04;7.90;99.90
18444;DHT22;9350;53.176;8.194;2023-12-28T03:19:31;7.80;99.90
18444;DHT22;9350;53.176;8.194;2023-12-28T03:21:58;7.80;99.90
18444;DHT22;9350;53.176;8.194;2023-12-28T03:24:24;7.80;99.90
18444;DHT22;9350;53.176;8.194;2023-12-28T03:26:51;7.80;99.90
18444;DHT22;9350;53.176;8.194;2023-12-28T03:29:18;7.80;99.90
18444;DHT22;9350;53.176;8.194;2023-12-28T03:31:46;7.90;99.90
18444;DHT22;9350;53.176;8.194;2023-12-28T03:34:13;7.80;99.90
18444;DHT22;9350;53.176;8.194;2023-12-28T03:36:40;7.80;99.90
18444;DHT22;9350;53.176;8.194;2023-12-28T03:39:08;7.90;99.90
18444;DHT22;9350;53.176;8.194;2023-12-28T03:41:34;7.90;99.90
18444;DHT22;9350;53.176;8.194;2023-12-28T03:44:01;7.80;99.90
18444;DHT22;9350;53.176;8.194;2023-12-28T03:46:28;7.80;99.90
18444;DHT22;9350;53.176;8.194;2023-12-28T03:48:56;7.80;99.90
18444;DHT22;9350;53.176;8.194;2023-12-28T03:51:24;7.80;99.90
18444;DHT22;9350;53.176;8.194;2023-12-28T03:53:51;7.90;99.90
18444;DHT22;9350;53.176;8.194;2023-12-28T03:56:20;7.90;99.90
18444;DHT22;9350;53.176;8.194;2023-12-28T03:58:46;7.80;99.90
18444;DHT22;9350;53.176;8.194;2023-12-28T04:01:12;7.90;99.90
18444;DHT22;9350;53.176;8.194;2023-12-28T04:03:39;7.90;99.90
18444;DHT22;9350;53.176;8.194;2023-12-28T04:06:07;7.90;99.90
18444;DHT22;9350;53.176;8.194;2023-12-28T04:08:34;7.90;99.90
18444;DHT22;9350;53.176;8.194;2023-12-28T04:11:01;7.90;99.90
18444;DHT22;9350;53.176;8.194;2023-12-28T04:13:27;8.00;99.90
18444;DHT22;9350;53.176;8.194;2023-12-28T04:15:54;7.90;99.90
18444;DHT22;9350;53.176;8.194;2023-12-28T04:18:21;8.00;99.90
18444;DHT22;9350;53.176;8.194;2023-12-28T04:20:48;8.00;99.90
18444;DHT22;9350;53.176;8.194;2023-12-28T04:23:16;8.10;99.90
18444;DHT22;9350;53.176;8.194;2023-12-28T04:25:43;8.10;99.90
18444;DHT22;9350;53.176;8.194;2023-12-28T04:28:09;8.00;99.90
18444;DHT22;9350;53.176;8.194;2023-12-28T04:30:37;8.00;99.90
18444;DHT22;9350;53.176;8.194;2023-12-28T04:33:04;8.00;99.90
18444;DHT22;9350;53.176;8.194;2023-12-28T04:35:31;8.00;99.90
18444;DHT22;9350;53.176;8.194;2023-12-28T04:37:57;8.00;99.90
18444;DHT22;9350;53.176;8.194;2023-12-28T04:40:25;8.00;99.90
18444;DHT22;9350;53.176;8.194;2023-12-28T04:42:52;8.00;99.90
18444;DHT22;9350;53.176;8.194;2023-12-28T04:45:19;8.10;99.90
18444;DHT22;9350;53.176;8.194;2023-12-28T04:47:47;8.00;99.90
18444;DHT22;9350;53.176;8.194;2023-12-28T04:50:14;8.00;99.90
18444;DHT22;9350;53.176;8.194;2023-12-28T04:52:41;8.00;99.90
18444;DHT22;9350;53.176;8.194;2023-12-28T04:55:08;7.90;99.90
18444;DHT22;9350;53.176;8.194;2023-12-28T04:57:36;8.00;99.90
18444;DHT22;9350;53.176;8.194;2023-12-28T05:00:03;8.00;99.90
18444;DHT22;9350;53.176;8.194;2023-12-28T05:02:30;8.00;99.90
18444;DHT22;9350;53.176;8.194;2023-12-28T05:04:57;8.10;99.90
18444;DHT22;9350;53.176;8.194;2023-12-28T05:07:24;8.10;99.90
18444;DHT22;9350;53.176;8.194;2023-12-28T05:09:51;8.10;99.90
18444;DHT22;9350;53.176;8.194;2023-12-28T05:12:18;8.00;99.90
18444;DHT22;9350;53.176;8.194;2023-12-28T05:14:46;8.00;99.90
18444;DHT22;9350;53.176;8.194;2023-12-28T05:17:13;8.00;99.90
18444;DHT22;9350;53.176;8.194;2023-12-28T05:19:40;8.10;99.90
18444;DHT22;9350;53.176;8.194;2023-12-28T05:22:06;8.10;99.90
18444;DHT22;9350;53.176;8.194;2023-12-28T05:24:36;8.10;99.90
18444;DHT22;9350;53.176;8.194;2023-12-28T05:27:03;8.10;99.90
18444;DHT22;9350;53.176;8.194;2023-12-28T05:29:30;8.10;99.90
18444;DHT22;9350;53.176;8.194;2023-12-28T05:31:58;8.10;99.90
18444;DHT22;9350;53.176;8.194;2023-12-28T05:34:25;8.10;99.90
18444;DHT22;9350;53.176;8.194;2023-12-28T05:36:52;8.20;99.90
18444;DHT22;9350;53.176;8.194;2023-12-28T05:39:18;8.20;99.90
18444;DHT22;9350;53.176;8.194;2023-12-28T05:41:45;8.30;99.90
18444;DHT22;9350;53.176;8.194;2023-12-28T05:44:13;8.30;99.90
18444;DHT22;9350;53.176;8.194;2023-12-28T05:46:40;8.30;99.90
18444;DHT22;9350;53.176;8.194;2023-12-28T05:49:08;8.20;99.90
18444;DHT22;9350;53.176;8.194;2023-12-28T05:51:38;8.40;99.90
18444;DHT22;9350;53.176;8.194;2023-12-28T05:54:06;8.30;99.90
18444;DHT22;9350;53.176;8.194;2023-12-28T05:56:33;8.30;99.90
18444;DHT22;9350;53.176;8.194;2023-12-28T05:59:00;8.40;99.90
18444;DHT22;9350;53.176;8.194;2023-12-28T06:01:27;8.40;99.90
18444;DHT22;9350;53.176;8.194;2023-12-28T06:03:53;8.50;99.90
18444;DHT22;9350;53.176;8.194;2023-12-28T06:06:22;8.50;99.90
18444;DHT22;9350;53.176;8.194;2023-12-28T06:08:48;8.50;99.90
18444;DHT22;9350;53.176;8.194;2023-12-28T06:11:16;8.50;99.90
18444;DHT22;9350;53.176;8.194;2023-12-28T06:13:43;8.50;99.90
18444;DHT22;9350;53.176;8.194;2023-12-28T06:16:10;8.60;99.90
18444;DHT22;9350;53.176;8.194;2023-12-28T06:18:37;8.70;99.90
18444;DHT22;9350;53.176;8.194;2023-12-28T06:21:04;8.60;99.90
18444;DHT22;9350;53.176;8.194;2023-12-28T06:23:33;8.50;99.90
18444;DHT22;9350;53.176;8.194;2023-12-28T06:26:04;8.60;99.90
18444;DHT22;9350;53.176;8.194;2023-12-28T06:28:32;8.60;99.90
18444;DHT22;9350;53.176;8.194;2023-12-28T06:30:59;8.60;99.90
18444;DHT22;9350;53.176;8.194;2023-12-28T06:33:26;8.60;99.90
18444;DHT22;9350;53.176;8.194;2023-12-28T06:35:53;8.60;99.90
18444;DHT22;9350;53.176;8.194;2023-12-28T06:38:20;8.70;99.90
18444;DHT22;9350;53.176;8.194;2023-12-28T06:40:48;8.70;99.90
18444;DHT22;9350;53.176;8.194;2023-12-28T06:43:15;8.60;99.90
18444;DHT22;9350;53.176;8.194;2023-12-28T06:45:42;8.70;99.90
18444;DHT22;9350;53.176;8.194;2023-12-28T06:48:08;8.70;99.90
18444;DHT22;9350;53.176;8.194;2023-12-28T06:50:35;8.70;99.90
18444;DHT22;9350;53.176;8.194;2023-12-28T06:53:02;8.70;99.90
18444;DHT22;9350;53.176;8.194;2023-12-28T06:55:29;8.60;99.90
18444;DHT22;9350;53.176;8.194;2023-12-28T06:57:57;8.70;99.90
18444;DHT22;9350;53.176;8.194;2023-12-28T07:00:24;8.70;99.90
18444;DHT22;9350;53.176;8.194;2023-12-28T07:02:51;8.70;99.90
18444;DHT22;9350;53.176;8.194;2023-12-28T07:05:17;8.70;99.90
18444;DHT22;9350;53.176;8.194;2023-12-28T07:07:44;8.80;99.90
18444;DHT22;9350;53.176;8.194;2023-12-28T07:10:11;8.80;99.90
18444;DHT22;9350;53.176;8.194;2023-12-28T07:12:38;8.80;99.90
18444;DHT22;9350;53.176;8.194;2023-12-28T07:15:07;8.80;99.90
18444;DHT22;9350;53.176;8.194;2023-12-28T07:17:36;8.80;99.90
18444;DHT22;9350;53.176;8.194;2023-12-28T07:20:05;8.80;99.90
18444;DHT22;9350;53.176;8.194;2023-12-28T07:22:34;8.80;99.90
18444;DHT22;9350;53.176;8.194;2023-12-28T07:25:01;8.80;99.90
18444;DHT22;9350;53.176;8.194;2023-12-28T07:27:28;8.90;99.90
18444;DHT22;9350;53.176;8.194;2023-12-28T07:29:55;8.80;99.90
18444;DHT22;9350;53.176;8.194;2023-12-28T07:32:23;9.00;99.90
18444;DHT22;9350;53.176;8.194;2023-12-28T07:34:51;9.00;99.90
18444;DHT22;9350;53.176;8.194;2023-12-28T07:37:18;8.90;99.90
18444;DHT22;9350;53.176;8.194;2023-12-28T07:39:45;9.00;99.90
18444;DHT22;9350;53.176;8.194;2023-12-28T07:42:12;9.00;99.90
18444;DHT22;9350;53.176;8.194;2023-12-28T07:44:38;9.00;99.90
18444;DHT22;9350;53.176;8.194;2023-12-28T07:47:05;9.00;99.90
18444;DHT22;9350;53.176;8.194;2023-12-28T07:49:34;9.10;99.90
18444;DHT22;9350;53.176;8.194;2023-12-28T07:52:00;9.10;99.90
18444;DHT22;9350;53.176;8.194;2023-12-28T07:54:28;9.10;99.90
18444;DHT22;9350;53.176;8.194;2023-12-28T07:56:55;9.10;99.90
18444;DHT22;9350;53.176;8.194;2023-12-28T07:59:21;9.10;99.90
18444;DHT22;9350;53.176;8.194;2023-12-28T08:01:49;9.10;99.90
18444;DHT22;9350;53.176;8.194;2023-12-28T08:04:15;9.10;99.90
18444;DHT22;9350;53.176;8.194;2023-12-28T08:06:44;9.10;99.90
18444;DHT22;9350;53.176;8.194;2023-12-28T08:09:11;9.20;99.90
18444;DHT22;9350;53.176;8.194;2023-12-28T08:11:38;9.10;99.90
18444;DHT22;9350;53.176;8.194;2023-12-28T08:14:05;9.10;99.90
18444;DHT22;9350;53.176;8.194;2023-12-28T08:16:32;9.20;99.90
18444;DHT22;9350;53.176;8.194;2023-12-28T08:19:00;9.20;99.90
18444;DHT22;9350;53.176;8.194;2023-12-28T08:21:27;9.20;99.90
18444;DHT22;9350;53.176;8.194;2023-12-28T08:23:57;9.20;99.90
18444;DHT22;9350;53.176;8.194;2023-12-28T08:26:23;9.20;99.90
18444;DHT22;9350;53.176;8.194;2023-12-28T08:28:50;9.30;99.90
18444;DHT22;9350;53.176;8.194;2023-12-28T08:31:18;9.30;99.90
18444;DHT22;9350;53.176;8.194;2023-12-28T08:33:44;9.30;99.90
18444;DHT22;9350;53.176;8.194;2023-12-28T08:36:11;9.30;99.90
18444;DHT22;9350;53.176;8.194;2023-12-28T08:38:39;9.30;99.90
18444;DHT22;9350;53.176;8.194;2023-12-28T08:41:07;9.40;99.90
18444;DHT22;9350;53.176;8.194;2023-12-28T08:43:35;9.40;99.90
18444;DHT22;9350;53.176;8.194;2023-12-28T08:46:01;9.40;99.90
18444;DHT22;9350;53.176;8.194;2023-12-28T08:48:28;9.50;99.90
18444;DHT22;9350;53.176;8.194;2023-12-28T08:50:55;9.40;99.90
18444;DHT22;9350;53.176;8.194;2023-12-28T08:53:22;9.40;99.90
18444;DHT22;9350;53.176;8.194;2023-12-28T08:55:49;9.30;99.90
18444;DHT22;9350;53.176;8.194;2023-12-28T08:58:18;9.40;99.90
18444;DHT22;9350;53.176;8.194;2023-12-28T09:00:45;9.40;99.90
18444;DHT22;9350;53.176;8.194;2023-12-28T09:03:13;9.40;99.90
18444;DHT22;9350;53.176;8.194;2023-12-28T09:05:40;9.50;99.90
18444;DHT22;9350;53.176;8.194;2023-12-28T09:08:06;9.40;99.90
18444;DHT22;9350;53.176;8.194;2023-12-28T09:10:33;9.50;99.90
18444;DHT22;9350;53.176;8.194;2023-12-28T09:13:00;9.50;99.90
18444;DHT22;9350;53.176;8.194;2023-12-28T09:15:28;9.50;99.90
18444;DHT22;9350;53.176;8.194;2023-12-28T09:17:56;9.50;99.90
18444;DHT22;9350;53.176;8.194;2023-12-28T09:20:22;9.50;99.90
18444;DHT22;9350;53.176;8.194;2023-12-28T09:22:49;9.50;99.90
18444;DHT22;9350;53.176;8.194;2023-12-28T09:25:21;9.50;99.90
18444;DHT22;9350;53.176;8.194;2023-12-28T09:27:48;9.60;99.90
18444;DHT22;9350;53.176;8.194;2023-12-28T09:30:15;9.60;99.90
18444;DHT22;9350;53.176;8.194;2023-12-28T09:32:43;9.60;99.90
18444;DHT22;9350;53.176;8.194;2023-12-28T09:35:10;9.50;99.90
18444;DHT22;9350;53.176;8.194;2023-12-28T09:37:37;9.50;99.90
18444;DHT22;9350;53.176;8.194;2023-12-28T09:40:05;9.60;99.90
18444;DHT22;9350;53.176;8.194;2023-12-28T09:42:42;9.60;99.90
18444;DHT22;9350;53.176;8.194;2023-12-28T09:45:10;9.60;99.90
18444;DHT22;9350;53.176;8.194;2023-12-28T09:47:37;9.60;99.90
18444;DHT22;9350;53.176;8.194;2023-12-28T09:50:07;9.70;99.90
18444;DHT22;9350;53.176;8.194;2023-12-28T09:52:34;9.60;99.90
18444;DHT22;9350;53.176;8.194;2023-12-28T09:55:00;9.70;99.90
18444;DHT22;9350;53.176;8.194;2023-12-28T09:57:28;9.70;99.90
18444;DHT22;9350;53.176;8.194;2023-12-28T09:59:55;9.70;99.90
18444;DHT22;9350;53.176;8.194;2023-12-28T10:02:23;9.70;99.90
18444;DHT22;9350;53.176;8.194;2023-12-28T10:04:50;9.60;99.90
18444;DHT22;9350;53.176;8.194;2023-12-28T10:07:18;9.70;99.90
18444;DHT22;9350;53.176;8.194;2023-12-28T10:09:45;9.70;99.90
18444;DHT22;9350;53.176;8.194;2023-12-28T10:12:12;9.70;99.90
18444;DHT22;9350;53.176;8.194;2023-12-28T10:14:39;9.70;99.90
18444;DHT22;9350;53.176;8.194;2023-12-28T10:17:06;9.70;99.90
18444;DHT22;9350;53.176;8.194;2023-12-28T10:19:32;9.70;99.90
18444;DHT22;9350;53.176;8.194;2023-12-28T10:21:59;9.70;99.90
18444;DHT22;9350;53.176;8.194;2023-12-28T10:24:27;9.70;99.90
18444;DHT22;9350;53.176;8.194;2023-12-28T10:26:54;9.80;99.90
18444;DHT22;9350;53.176;8.194;2023-12-28T10:29:24;9.80;99.90
18444;DHT22;9350;53.176;8.194;2023-12-28T10:31:51;9.80;99.90
18444;DHT22;9350;53.176;8.194;2023-12-28T10:34:18;9.80;99.90
18444;DHT22;9350;53.176;8.194;2023-12-28T10:36:46;9.80;99.90
18444;DHT22;9350;53.176;8.194;2023-12-28T10:39:16;9.90;99.90
18444;DHT22;9350;53.176;8.194;2023-12-28T10:41:49;9.80;99.90
18444;DHT22;9350;53.176;8.194;2023-12-28T10:44:20;9.70;99.90
18444;DHT22;9350;53.176;8.194;2023-12-28T10:46:48;9.80;99.90
18444;DHT22;9350;53.176;8.194;2023-12-28T10:49:17;9.80;99.90
18444;DHT22;9350;53.176;8.194;2023-12-28T10:51:51;9.90;99.90
18444;DHT22;9350;53.176;8.194;2023-12-28T10:54:31;9.90;99.90
18444;DHT22;9350;53.176;8.194;2023-12-28T10:57:06;9.80;99.90
18444;DHT22;9350;53.176;8.194;2023-12-28T10:59:42;10.00;99.90
18444;DHT22;9350;53.176;8.194;2023-12-28T11:02:15;9.90;99.90
18444;DHT22;9350;53.176;8.194;2023-12-28T11:04:48;9.90;99.90
18444;DHT22;9350;53.176;8.194;2023-12-28T11:07:18;9.90;99.90
18444;DHT22;9350;53.176;8.194;2023-12-28T11:09:45;9.90;99.90
18444;DHT22;9350;53.176;8.194;2023-12-28T11:12:13;9.90;99.90
18444;DHT22;9350;53.176;8.194;2023-12-28T11:14:44;9.90;99.90
18444;DHT22;9350;53.176;8.194;2023-12-28T11:17:12;10.00;99.90
18444;DHT22;9350;53.176;8.194;2023-12-28T11:19:41;10.00;99.90
18444;DHT22;9350;53.176;8.194;2023-12-28T11:22:08;9.90;99.90
18444;DHT22;9350;53.176;8.194;2023-12-28T11:24:35;10.10;99.90
18444;DHT22;9350;53.176;8.194;2023-12-28T11:27:03;10.10;99.90
18444;DHT22;9350;53.176;8.194;2023-12-28T11:29:32;10.00;99.90
18444;DHT22;9350;53.176;8.194;2023-12-28T11:32:00;10.00;99.90
18444;DHT22;9350;53.176;8.194;2023-12-28T11:34:28;10.00;99.90
18444;DHT22;9350;53.176;8.194;2023-12-28T11:36:56;10.00;99.90
18444;DHT22;9350;53.176;8.194;2023-12-28T11:39:29;10.00;99.90
18444;DHT22;9350;53.176;8.194;2023-12-28T11:42:02;10.00;99.90
18444;DHT22;9350;53.176;8.194;2023-12-28T11:44:29;10.00;99.90
18444;DHT22;9350;53.176;8.194;2023-12-28T11:46:58;10.00;99.90
18444;DHT22;9350;53.176;8.194;2023-12-28T11:49:28;10.10;99.90
18444;DHT22;9350;53.176;8.194;2023-12-28T11:51:56;10.10;99.90
18444;DHT22;9350;53.176;8.194;2023-12-28T11:54:24;10.10;99.90
18444;DHT22;9350;53.176;8.194;2023-12-28T11:56:51;10.10;99.90
18444;DHT22;9350;53.176;8.194;2023-12-28T11:59:18;10.10;99.90
18444;DHT22;9350;53.176;8.194;2023-12-28T12:01:49;10.00;99.90
18444;DHT22;9350;53.176;8.194;2023-12-28T12:04:17;10.00;99.90
18444;DHT22;9350;53.176;8.194;2023-12-28T12:06:44;10.00;99.90
18444;DHT22;9350;53.176;8.194;2023-12-28T12:09:12;10.00;99.90
18444;DHT22;9350;53.176;8.194;2023-12-28T12:11:39;10.00;99.90
18444;DHT22;9350;53.176;8.194;2023-12-28T12:14:08;10.10;99.90
18444;DHT22;9350;53.176;8.194;2023-12-28T12:16:35;10.00;99.90
18444;DHT22;9350;53.176;8.194;2023-12-28T12:19:02;10.00;99.90
18444;DHT22;9350;53.176;8.194;2023-12-28T12:21:31;10.00;99.90
18444;DHT22;9350;53.176;8.194;2023-12-28T12:23:58;10.00;99.90
18444;DHT22;9350;53.176;8.194;2023-12-28T12:26:26;10.00;99.90
18444;DHT22;9350;53.176;8.194;2023-12-28T12:28:53;10.00;99.90
18444;DHT22;9350;53.176;8.194;2023-12-28T12:31:20;10.00;99.90
18444;DHT22;9350;53.176;8.194;2023-12-28T12:33:47;10.10;99.90
18444;DHT22;9350;53.176;8.194;2023-12-28T12:36:15;10.10;99.90
18444;DHT22;9350;53.176;8.194;2023-12-28T12:38:44;10.10;99.90
18444;DHT22;9350;53.176;8.194;2023-12-28T12:41:11;10.10;99.90
18444;DHT22;9350;53.176;8.194;2023-12-28T12:43:39;10.10;99.90
18444;DHT22;9350;53.176;8.194;2023-12-28T12:46:06;10.10;99.90
18444;DHT22;9350;53.176;8.194;2023-12-28T12:48:33;10.00;99.90
18444;DHT22;9350;53.176;8.194;2023-12-28T12:51:02;10.00;99.90
18444;DHT22;9350;53.176;8.194;2023-12-28T12:53:33;10.10;99.90
18444;DHT22;9350;53.176;8.194;2023-12-28T12:56:03;10.10;99.90
18444;DHT22;9350;53.176;8.194;2023-12-28T12:58:30;10.10;99.90
18444;DHT22;9350;53.176;8.194;2023-12-28T13:00:57;10.10;99.90
18444;DHT22;9350;53.176;8.194;2023-12-28T13:03:27;10.10;99.90
18444;DHT22;9350;53.176;8.194;2023-12-28T13:05:55;10.10;99.90
18444;DHT22;9350;53.176;8.194;2023-12-28T13:08:22;10.10;99.90
18444;DHT22;9350;53.176;8.194;2023-12-28T13:10:49;10.10;99.90
18444;DHT22;9350;53.176;8.194;2023-12-28T13:13:17;10.20;99.90
18444;DHT22;9350;53.176;8.194;2023-12-28T13:15:44;10.10;99.90
18444;DHT22;9350;53.176;8.194;2023-12-28T13:18:11;10.10;99.90
18444;DHT22;9350;53.176;8.194;2023-12-28T13:20:38;10.10;99.90
18444;DHT22;9350;53.176;8.194;2023-12-28T13:23:05;10.10;99.90
18444;DHT22;9350;53.176;8.194;2023-12-28T13:25:32;10.00;99.90
18444;DHT22;9350;53.176;8.194;2023-12-28T13:27:58;10.10;99.90
18444;DHT22;9350;53.176;8.194;2023-12-28T13:30:27;10.10;99.90
18444;DHT22;9350;53.176;8.194;2023-12-28T13:32:54;10.10;99.90
18444;DHT22;9350;53.176;8.194;2023-12-28T13:35:21;10.10;99.90
18444;DHT22;9350;53.176;8.194;2023-12-28T13:37:49;10.10;99.90
18444;DHT22;9350;53.176;8.194;2023-12-28T13:40:15;10.10;99.90
18444;DHT22;9350;53.176;8.194;2023-12-28T13:42:42;10.10;99.90
18444;DHT22;9350;53.176;8.194;2023-12-28T13:45:09;10.10;99.90
18444;DHT22;9350;53.176;8.194;2023-12-28T13:47:38;10.10;99.90
18444;DHT22;9350;53.176;8.194;2023-12-28T13:50:05;10.10;99.90
18444;DHT22;9350;53.176;8.194;2023-12-28T13:52:32;10.10;99.90
18444;DHT22;9350;53.176;8.194;2023-12-28T13:54:59;10.10;99.90
18444;DHT22;9350;53.176;8.194;2023-12-28T13:57:26;10.10;99.90
18444;DHT22;9350;53.176;8.194;2023-12-28T13:59:53;10.00;99.90
18444;DHT22;9350;53.176;8.194;2023-12-28T14:02:21;10.10;99.90
18444;DHT22;9350;53.176;8.194;2023-12-28T14:04:50;10.00;99.90
18444;DHT22;9350;53.176;8.194;2023-12-28T14:07:16;10.00;99.90
18444;DHT22;9350;53.176;8.194;2023-12-28T14:09:43;10.00;99.90
18444;DHT22;9350;53.176;8.194;2023-12-28T14:12:10;10.10;99.90
18444;DHT22;9350;53.176;8.194;2023-12-28T14:14:37;10.10;99.90
18444;DHT22;9350;53.176;8.194;2023-12-28T14:17:04;10.20;99.90
18444;DHT22;9350;53.176;8.194;2023-12-28T14:19:31;10.20;99.90
18444;DHT22;9350;53.176;8.194;2023-12-28T14:21:59;10.10;99.90
18444;DHT22;9350;53.176;8.194;2023-12-28T14:24:27;10.10;99.90
18444;DHT22;9350;53.176;8.194;2023-12-28T14:26:55;10.10;99.90
18444;DHT22;9350;53.176;8.194;2023-12-28T14:29:22;10.10;99.90
18444;DHT22;9350;53.176;8.194;2023-12-28T14:31:50;10.10;99.90
18444;DHT22;9350;53.176;8.194;2023-12-28T14:34:17;10.00;99.90
18444;DHT22;9350;53.176;8.194;2023-12-28T14:36:45;10.00;99.90
18444;DHT22;9350;53.176;8.194;2023-12-28T14:39:16;10.00;99.90
18444;DHT22;9350;53.176;8.194;2023-12-28T14:41:44;10.10;99.90
18444;DHT22;9350;53.176;8.194;2023-12-28T14:44:11;10.00;99.90
18444;DHT22;9350;53.176;8.194;2023-12-28T14:46:38;10.00;99.90
18444;DHT22;9350;53.176;8.194;2023-12-28T14:49:05;10.00;99.90
18444;DHT22;9350;53.176;8.194;2023-12-28T14:51:32;9.90;99.90
18444;DHT22;9350;53.176;8.194;2023-12-28T14:53:59;10.00;99.90
18444;DHT22;9350;53.176;8.194;2023-12-28T14:56:27;10.00;99.90
18444;DHT22;9350;53.176;8.194;2023-12-28T14:58:54;10.10;99.90
18444;DHT22;9350;53.176;8.194;2023-12-28T15:01:21;10.00;99.90
18444;DHT22;9350;53.176;8.194;2023-12-28T15:03:48;10.00;99.90
18444;DHT22;9350;53.176;8.194;2023-12-28T15:06:15;10.00;99.90
18444;DHT22;9350;53.176;8.194;2023-12-28T15:08:42;10.00;99.90
18444;DHT22;9350;53.176;8.194;2023-12-28T15:11:09;10.00;99.90
18444;DHT22;9350;53.176;8.194;2023-12-28T15:13:38;10.00;99.90
18444;DHT22;9350;53.176;8.194;2023-12-28T15:16:06;10.00;99.90
18444;DHT22;9350;53.176;8.194;2023-12-28T15:18:34;10.00;99.90
18444;DHT22;9350;53.176;8.194;2023-12-28T15:21:01;10.00;99.90
18444;DHT22;9350;53.176;8.194;2023-12-28T15:23:29;10.00;99.90
18444;DHT22;9350;53.176;8.194;2023-12-28T15:25:56;10.00;99.90
18444;DHT22;9350;53.176;8.194;2023-12-28T15:28:23;10.00;99.90
18444;DHT22;9350;53.176;8.194;2023-12-28T15:30:51;10.10;99.90
18444;DHT22;9350;53.176;8.194;2023-12-28T15:33:18;10.10;99.90
18444;DHT22;9350;53.176;8.194;2023-12-28T15:35:45;10.00;99.90
18444;DHT22;9350;53.176;8.194;2023-12-28T15:38:12;10.00;99.90
18444;DHT22;9350;53.176;8.194;2023-12-28T15:40:41;10.00;99.90
18444;DHT22;9350;53.176;8.194;2023-12-28T15:43:08;10.00;99.90
18444;DHT22;9350;53.176;8.194;2023-12-28T15:45:36;10.00;99.90
18444;DHT22;9350;53.176;8.194;2023-12-28T15:48:05;9.90;99.90
18444;DHT22;9350;53.176;8.194;2023-12-28T15:50:32;9.90;99.90
18444;DHT22;9350;53.176;8.194;2023-12-28T15:52:59;9.90;99.90
18444;DHT22;9350;53.176;8.194;2023-12-28T15:55:25;9.90;99.90
18444;DHT22;9350;53.176;8.194;2023-12-28T15:57:52;9.90;99.90